createdAt,value
2018-01-01T00:00:10.752Z,0.00
2018-01-01T00:01:10.733Z,0.00
2018-01-01T00:02:10.665Z,0.00
2018-01-01T00:03:10.657Z,0.00
2018-01-01T00:04:10.629Z,0.00
2018-01-01T00:05:10.571Z,0.00
2018-01-01T00:06:10.562Z,0.00
2018-01-01T00:07:10.497Z,0.00
2018-01-01T00:08:10.503Z,0.00
2018-01-01T00:09:10.427Z,0.00
2018-01-01T00:10:10.436Z,0.00
2018-01-01T00:11:10.320Z,0.00
2018-01-01T00:12:10.287Z,0.00
2018-01-01T00:13:10.256Z,0.00
2018-01-01T00:14:10.222Z,0.00
2018-01-01T00:15:10.173Z,0.00
2018-01-01T00:16:10.213Z,0.00
2018-01-01T00:17:10.116Z,0.00
2018-01-01T00:18:10.045Z,0.00
2018-01-01T00:19:10.037Z,0.00
2018-01-01T00:20:10.023Z,0.00
2018-01-01T00:21:09.933Z,0.00
2018-01-01T00:22:09.904Z,0.00
2018-01-01T00:23:09.874Z,0.00
2018-01-01T00:24:09.830Z,0.00
2018-01-01T00:25:09.806Z,0.00
2018-01-01T00:26:09.763Z,0.00
2018-01-01T00:27:09.733Z,0.00
2018-01-01T00:28:09.827Z,0.00
2018-01-01T00:29:09.633Z,0.00
2018-01-01T00:30:09.610Z,0.00
2018-01-01T00:31:09.624Z,0.00
2018-01-01T00:32:09.536Z,0.00
2018-01-01T00:33:09.477Z,0.00
2018-01-01T00:34:09.428Z,0.00
2018-01-01T00:35:09.497Z,0.00
2018-01-01T00:36:09.389Z,0.00
2018-01-01T00:37:09.324Z,0.00
2018-01-01T00:38:09.307Z,0.00
2018-01-01T00:39:09.237Z,0.00
2018-01-01T00:40:09.206Z,0.00
2018-01-01T00:41:09.175Z,0.00
2018-01-01T00:42:09.181Z,0.00
2018-01-01T00:43:09.077Z,0.00
2018-01-01T00:44:09.119Z,0.00
2018-01-01T00:45:09.051Z,0.00
2018-01-01T00:46:09.000Z,0.00
2018-01-01T00:47:08.952Z,0.00
2018-01-01T00:48:08.885Z,0.00
2018-01-01T00:49:08.854Z,0.00
2018-01-01T00:50:08.862Z,0.00
2018-01-01T00:51:08.783Z,0.00
2018-01-01T00:52:08.760Z,0.00
2018-01-01T00:53:09.540Z,0.00
2018-01-01T00:54:08.653Z,0.00
2018-01-01T00:55:08.615Z,0.00
2018-01-01T00:56:08.582Z,0.00
2018-01-01T00:57:08.565Z,0.00
2018-01-01T00:58:08.560Z,0.00
2018-01-01T00:59:08.489Z,0.00
2018-01-01T01:00:08.430Z,0.00
2018-01-01T01:01:08.390Z,0.00
2018-01-01T01:02:08.353Z,0.00
2018-01-01T01:03:08.323Z,0.00
2018-01-01T01:04:08.312Z,0.00
2018-01-01T01:05:08.231Z,0.00
2018-01-01T01:06:08.216Z,0.00
2018-01-01T01:07:08.174Z,0.00
2018-01-01T01:08:08.121Z,0.00
2018-01-01T01:09:08.077Z,0.00
2018-01-01T01:10:08.039Z,0.00
2018-01-01T01:11:07.999Z,0.00
2018-01-01T01:12:07.968Z,0.00
2018-01-01T01:13:07.922Z,0.00
2018-01-01T01:14:07.882Z,0.00
2018-01-01T01:15:07.842Z,0.00
2018-01-01T01:16:07.802Z,0.00
2018-01-01T01:17:07.773Z,0.00
2018-01-01T01:18:07.740Z,0.00
2018-01-01T01:19:07.711Z,0.00
2018-01-01T01:20:07.655Z,0.00
2018-01-01T01:21:07.608Z,0.00
2018-01-01T01:22:07.580Z,0.00
2018-01-01T01:23:07.546Z,0.00
2018-01-01T01:24:07.503Z,0.00
2018-01-01T01:25:07.480Z,0.00
2018-01-01T01:26:07.462Z,0.00
2018-01-01T01:27:07.374Z,0.00
2018-01-01T01:28:07.335Z,0.00
2018-01-01T01:29:07.290Z,0.00
2018-01-01T01:30:07.292Z,0.00
2018-01-01T01:31:07.239Z,0.00
2018-01-01T01:32:07.190Z,0.00
2018-01-01T01:33:07.140Z,0.00
2018-01-01T01:34:07.103Z,0.00
2018-01-01T01:35:07.063Z,0.00
2018-01-01T01:36:07.019Z,0.00
2018-01-01T01:37:06.985Z,0.00
2018-01-01T01:38:06.970Z,0.00
2018-01-01T01:39:06.907Z,0.00
2018-01-01T01:40:06.926Z,0.00
2018-01-01T01:41:06.832Z,0.00
2018-01-01T01:42:06.806Z,0.00
2018-01-01T01:43:06.750Z,0.00
2018-01-01T01:44:06.723Z,0.00
2018-01-01T01:45:06.670Z,0.00
2018-01-01T01:46:06.651Z,0.00
2018-01-01T01:47:06.588Z,0.00
2018-01-01T01:48:06.606Z,0.00
2018-01-01T01:49:06.526Z,0.00
2018-01-01T01:50:06.472Z,0.00
2018-01-01T01:51:06.473Z,0.00
2018-01-01T01:52:06.437Z,0.00
2018-01-01T01:53:06.358Z,0.00
2018-01-01T01:54:06.313Z,0.00
2018-01-01T01:55:06.293Z,0.00
2018-01-01T01:56:06.263Z,0.00
2018-01-01T01:57:06.231Z,0.00
2018-01-01T01:58:06.196Z,0.00
2018-01-01T01:59:06.119Z,0.00
2018-01-01T02:00:06.079Z,0.00
2018-01-01T02:01:06.061Z,0.00
2018-01-01T02:02:06.006Z,0.00
2018-01-01T02:03:05.987Z,0.00
2018-01-01T02:04:05.950Z,0.00
2018-01-01T02:05:05.888Z,0.00
2018-01-01T02:06:05.855Z,0.00
2018-01-01T02:07:05.813Z,0.00
2018-01-01T02:08:05.774Z,0.00
2018-01-01T02:09:05.731Z,0.00
2018-01-01T02:10:05.691Z,0.00
2018-01-01T02:11:05.805Z,0.00
2018-01-01T02:12:05.618Z,0.00
2018-01-01T02:13:05.598Z,0.00
2018-01-01T02:14:05.785Z,0.00
2018-01-01T02:15:05.494Z,0.00
2018-01-01T02:16:05.497Z,0.00
2018-01-01T02:17:05.441Z,0.00
2018-01-01T02:18:05.399Z,0.00
2018-01-01T02:19:05.340Z,0.00
2018-01-01T02:20:05.302Z,0.00
2018-01-01T02:21:05.265Z,0.00
2018-01-01T02:22:05.222Z,0.00
2018-01-01T02:23:05.180Z,0.00
2018-01-01T02:24:05.143Z,0.00
2018-01-01T02:25:05.107Z,0.00
2018-01-01T02:26:05.101Z,0.00
2018-01-01T02:27:05.023Z,0.00
2018-01-01T02:28:04.990Z,0.00
2018-01-01T02:29:04.978Z,0.00
2018-01-01T02:30:04.916Z,0.00
2018-01-01T02:31:04.875Z,0.00
2018-01-01T02:32:04.865Z,0.00
2018-01-01T02:33:04.803Z,0.00
2018-01-01T02:34:04.831Z,0.00
2018-01-01T02:35:04.729Z,0.00
2018-01-01T02:36:04.685Z,0.00
2018-01-01T02:37:04.676Z,0.00
2018-01-01T02:38:04.651Z,0.00
2018-01-01T02:39:04.559Z,0.00
2018-01-01T02:40:04.590Z,0.00
2018-01-01T02:41:04.516Z,0.00
2018-01-01T02:42:04.486Z,0.00
2018-01-01T02:43:04.432Z,0.00
2018-01-01T02:44:04.376Z,0.00
2018-01-01T02:45:04.344Z,0.00
2018-01-01T02:46:04.340Z,0.00
2018-01-01T02:47:04.301Z,0.00
2018-01-01T02:48:04.229Z,0.00
2018-01-01T02:49:04.195Z,0.00
2018-01-01T02:50:04.133Z,0.00
2018-01-01T02:51:04.139Z,0.00
2018-01-01T02:52:04.055Z,0.00
2018-01-01T02:53:04.015Z,0.00
2018-01-01T02:54:03.980Z,0.00
2018-01-01T02:55:03.964Z,0.00
2018-01-01T02:56:03.901Z,0.00
2018-01-01T02:57:03.894Z,0.00
2018-01-01T02:58:03.862Z,0.00
2018-01-01T02:59:03.826Z,0.00
2018-01-01T03:00:03.757Z,0.00
2018-01-01T03:01:03.768Z,0.00
2018-01-01T03:02:03.681Z,0.00
2018-01-01T03:03:04.201Z,0.00
2018-01-01T03:04:04.200Z,0.00
2018-01-01T03:05:03.551Z,0.00
2018-01-01T03:06:03.511Z,0.00
2018-01-01T03:07:03.498Z,0.00
2018-01-01T03:08:04.201Z,0.00
2018-01-01T03:09:03.413Z,0.00
2018-01-01T03:10:03.368Z,0.00
2018-01-01T03:11:03.325Z,0.00
2018-01-01T03:12:03.302Z,0.00
2018-01-01T03:13:03.259Z,0.00
2018-01-01T03:14:03.243Z,0.00
2018-01-01T03:15:03.208Z,0.00
2018-01-01T03:16:03.152Z,0.00
2018-01-01T03:17:03.101Z,0.00
2018-01-01T03:18:03.069Z,0.00
2018-01-01T03:19:03.043Z,0.00
2018-01-01T03:20:03.013Z,0.00
2018-01-01T03:21:02.973Z,0.00
2018-01-01T03:22:02.897Z,0.00
2018-01-01T03:23:02.874Z,0.00
2018-01-01T03:24:02.851Z,0.00
2018-01-01T03:25:02.801Z,0.00
2018-01-01T03:26:02.785Z,0.00
2018-01-01T03:27:02.725Z,0.00
2018-01-01T03:28:02.668Z,0.00
2018-01-01T03:29:02.686Z,0.00
2018-01-01T03:30:02.763Z,0.00
2018-01-01T03:31:02.570Z,0.00
2018-01-01T03:32:02.511Z,0.00
2018-01-01T03:33:02.508Z,0.00
2018-01-01T03:34:02.453Z,0.00
2018-01-01T03:35:02.416Z,0.00
2018-01-01T03:36:02.364Z,0.00
2018-01-01T03:37:02.361Z,0.00
2018-01-01T03:38:02.297Z,0.00
2018-01-01T03:39:02.289Z,0.00
2018-01-01T03:40:02.219Z,0.00
2018-01-01T03:41:02.172Z,0.00
2018-01-01T03:42:02.129Z,0.00
2018-01-01T03:43:02.088Z,0.00
2018-01-01T03:44:02.106Z,0.00
2018-01-01T03:45:02.075Z,0.00
2018-01-01T03:46:02.004Z,0.00
2018-01-01T03:47:01.993Z,0.00
2018-01-01T03:48:01.917Z,0.00
2018-01-01T03:49:01.931Z,0.00
2018-01-01T03:50:01.857Z,0.00
2018-01-01T03:51:01.808Z,0.00
2018-01-01T03:52:01.756Z,0.00
2018-01-01T03:53:01.725Z,0.00
2018-01-01T03:54:01.702Z,0.00
2018-01-01T03:55:01.643Z,0.00
2018-01-01T03:56:01.625Z,0.00
2018-01-01T03:57:01.581Z,0.00
2018-01-01T03:58:01.521Z,0.00
2018-01-01T03:59:01.472Z,0.00
2018-01-01T04:00:01.449Z,0.00
2018-01-01T04:01:01.400Z,0.00
2018-01-01T04:02:01.394Z,0.00
2018-01-01T04:03:01.358Z,0.00
2018-01-01T04:04:01.294Z,0.00
2018-01-01T04:05:01.269Z,0.00
2018-01-01T04:06:01.216Z,0.00
2018-01-01T04:07:01.164Z,0.00
2018-01-01T04:08:01.164Z,0.00
2018-01-01T04:09:01.188Z,0.00
2018-01-01T04:10:01.062Z,0.00
2018-01-01T04:11:01.014Z,0.00
2018-01-01T04:12:01.065Z,0.00
2018-01-01T04:13:00.973Z,0.00
2018-01-01T04:14:00.913Z,0.00
2018-01-01T04:15:00.854Z,0.00
2018-01-01T04:16:00.817Z,0.00
2018-01-01T04:17:00.804Z,0.00
2018-01-01T04:18:00.763Z,0.00
2018-01-01T04:19:00.739Z,0.00
2018-01-01T04:20:00.760Z,0.00
2018-01-01T04:21:00.623Z,0.00
2018-01-01T04:22:00.593Z,0.00
2018-01-01T04:23:00.559Z,0.00
2018-01-01T04:24:00.512Z,0.00
2018-01-01T04:25:00.491Z,0.00
2018-01-01T04:26:00.465Z,0.00
2018-01-01T04:27:00.392Z,0.00
2018-01-01T04:28:00.380Z,0.00
2018-01-01T04:29:00.344Z,0.00
2018-01-01T04:30:00.291Z,0.00
2018-01-01T04:31:00.301Z,0.00
2018-01-01T04:32:00.245Z,0.00
2018-01-01T04:33:00.157Z,0.00
2018-01-01T04:34:00.135Z,0.00
2018-01-01T04:35:00.093Z,0.00
2018-01-01T04:36:00.044Z,0.00
2018-01-01T04:37:00.004Z,0.00
2018-01-01T04:37:59.989Z,0.00
2018-01-01T04:38:59.971Z,0.00
2018-01-01T04:39:59.892Z,0.00
2018-01-01T04:40:59.901Z,0.00
2018-01-01T04:41:59.883Z,0.00
2018-01-01T04:42:59.801Z,0.00
2018-01-01T04:43:59.822Z,0.00
2018-01-01T04:44:59.791Z,0.00
2018-01-01T04:45:59.665Z,0.00
2018-01-01T04:46:59.641Z,0.00
2018-01-01T04:47:59.585Z,0.00
2018-01-01T04:48:59.576Z,0.00
2018-01-01T04:49:59.517Z,0.00
2018-01-01T04:50:59.465Z,0.00
2018-01-01T04:51:59.421Z,0.00
2018-01-01T04:52:59.399Z,0.00
2018-01-01T04:53:59.350Z,0.00
2018-01-01T04:54:59.353Z,0.00
2018-01-01T04:55:59.310Z,0.00
2018-01-01T04:56:59.236Z,0.00
2018-01-01T04:57:59.218Z,0.00
2018-01-01T04:58:59.190Z,0.00
2018-01-01T04:59:59.138Z,0.00
2018-01-01T05:00:59.069Z,0.00
2018-01-01T05:01:59.065Z,0.00
2018-01-01T05:02:59.013Z,0.00
2018-01-01T05:03:58.988Z,0.00
2018-01-01T05:04:58.934Z,0.00
2018-01-01T05:05:58.878Z,0.00
2018-01-01T05:06:58.840Z,0.00
2018-01-01T05:07:58.836Z,0.00
2018-01-01T05:08:58.786Z,0.00
2018-01-01T05:09:58.780Z,0.00
2018-01-01T05:10:58.716Z,0.00
2018-01-01T05:11:58.668Z,0.00
2018-01-01T05:12:58.602Z,0.00
2018-01-01T05:13:58.565Z,0.00
2018-01-01T05:14:58.594Z,0.00
2018-01-01T05:15:58.514Z,0.00
2018-01-01T05:16:58.454Z,0.00
2018-01-01T05:17:58.411Z,0.00
2018-01-01T05:18:58.411Z,0.00
2018-01-01T05:19:58.371Z,0.00
2018-01-01T05:20:58.317Z,0.00
2018-01-01T05:21:58.255Z,0.00
2018-01-01T05:22:58.276Z,0.00
2018-01-01T05:23:58.497Z,0.00
2018-01-01T05:24:58.166Z,0.00
2018-01-01T05:25:58.108Z,0.00
2018-01-01T05:26:58.129Z,0.00
2018-01-01T05:27:58.024Z,0.00
2018-01-01T05:28:57.984Z,0.00
2018-01-01T05:29:57.968Z,0.00
2018-01-01T05:30:57.912Z,0.00
2018-01-01T05:31:57.910Z,0.00
2018-01-01T05:32:57.881Z,0.00
2018-01-01T05:33:57.838Z,0.00
2018-01-01T05:34:57.832Z,0.00
2018-01-01T05:35:57.758Z,0.00
2018-01-01T05:36:57.727Z,0.00
2018-01-01T05:37:57.680Z,0.00
2018-01-01T05:38:57.599Z,0.00
2018-01-01T05:39:57.642Z,0.00
2018-01-01T05:40:57.547Z,0.00
2018-01-01T05:41:57.529Z,0.00
2018-01-01T05:42:57.578Z,0.00
2018-01-01T05:43:57.407Z,0.00
2018-01-01T05:44:57.414Z,0.00
2018-01-01T05:45:57.347Z,0.00
2018-01-01T05:46:57.320Z,0.00
2018-01-01T05:47:57.246Z,0.00
2018-01-01T05:48:57.229Z,0.00
2018-01-01T05:49:57.215Z,0.00
2018-01-01T05:50:57.142Z,0.00
2018-01-01T05:51:57.093Z,0.00
2018-01-01T05:52:57.064Z,0.00
2018-01-01T05:53:57.031Z,0.00
2018-01-01T05:54:56.992Z,0.00
2018-01-01T05:55:56.976Z,0.00
2018-01-01T05:56:56.945Z,0.00
2018-01-01T05:57:56.885Z,0.00
2018-01-01T05:58:56.844Z,0.00
2018-01-01T05:59:56.781Z,0.00
2018-01-01T06:00:56.779Z,0.00
2018-01-01T06:01:56.699Z,0.00
2018-01-01T06:02:56.664Z,0.00
2018-01-01T06:03:56.654Z,0.00
2018-01-01T06:04:56.597Z,0.00
2018-01-01T06:05:56.568Z,0.00
2018-01-01T06:06:56.528Z,0.00
2018-01-01T06:07:56.487Z,0.00
2018-01-01T06:08:56.708Z,0.00
2018-01-01T06:09:56.427Z,0.00
2018-01-01T06:10:56.374Z,0.00
2018-01-01T06:11:56.445Z,0.00
2018-01-01T06:12:56.320Z,0.00
2018-01-01T06:13:56.258Z,0.00
2018-01-01T06:14:56.189Z,0.00
2018-01-01T06:15:56.188Z,0.00
2018-01-01T06:16:56.148Z,0.00
2018-01-01T06:17:56.098Z,0.00
2018-01-01T06:18:56.080Z,0.00
2018-01-01T06:19:56.036Z,0.00
2018-01-01T06:20:55.976Z,0.00
2018-01-01T06:21:55.999Z,0.00
2018-01-01T06:22:55.916Z,0.00
2018-01-01T06:23:55.842Z,0.00
2018-01-01T06:24:55.814Z,0.00
2018-01-01T06:25:55.765Z,0.00
2018-01-01T06:26:55.725Z,0.00
2018-01-01T06:27:55.727Z,0.00
2018-01-01T06:28:55.655Z,0.00
2018-01-01T06:29:55.678Z,0.00
2018-01-01T06:30:55.593Z,0.00
2018-01-01T06:31:55.549Z,0.00
2018-01-01T06:32:55.560Z,0.00
2018-01-01T06:33:55.493Z,0.00
2018-01-01T06:34:55.441Z,0.00
2018-01-01T06:35:55.390Z,0.00
2018-01-01T06:36:55.349Z,0.00
2018-01-01T06:37:55.336Z,0.00
2018-01-01T06:38:55.263Z,0.00
2018-01-01T06:39:55.224Z,0.00
2018-01-01T06:40:55.206Z,0.00
2018-01-01T06:41:55.148Z,0.00
2018-01-01T06:42:55.137Z,0.00
2018-01-01T06:43:55.065Z,0.00
2018-01-01T06:44:55.039Z,0.00
2018-01-01T06:45:55.014Z,0.00
2018-01-01T06:46:54.944Z,0.00
2018-01-01T06:47:54.951Z,0.00
2018-01-01T06:48:54.870Z,0.00
2018-01-01T06:49:54.891Z,0.00
2018-01-01T06:50:54.806Z,0.00
2018-01-01T06:51:54.768Z,0.00
2018-01-01T06:52:54.720Z,0.00
2018-01-01T06:53:54.693Z,0.00
2018-01-01T06:54:54.642Z,0.00
2018-01-01T06:55:54.604Z,0.00
2018-01-01T06:56:54.560Z,0.00
2018-01-01T06:57:54.591Z,0.00
2018-01-01T06:58:54.518Z,0.00
2018-01-01T06:59:54.441Z,0.00
2018-01-01T07:00:54.408Z,0.00
2018-01-01T07:01:54.360Z,0.00
2018-01-01T07:02:56.197Z,0.00
2018-01-01T07:03:57.198Z,0.00
2018-01-01T07:04:55.699Z,0.00
2018-01-01T07:05:54.227Z,0.00
2018-01-01T07:06:54.195Z,0.00
2018-01-01T07:07:54.545Z,0.00
2018-01-01T07:08:54.131Z,0.00
2018-01-01T07:09:54.059Z,0.00
2018-01-01T07:10:54.025Z,0.00
2018-01-01T07:11:54.010Z,0.00
2018-01-01T07:12:53.936Z,0.00
2018-01-01T07:13:53.996Z,0.00
2018-01-01T07:14:53.888Z,0.00
2018-01-01T07:15:53.831Z,0.00
2018-01-01T07:16:53.799Z,0.00
2018-01-01T07:17:53.772Z,0.00
2018-01-01T07:18:53.702Z,0.00
2018-01-01T07:19:53.689Z,0.00
2018-01-01T07:20:53.664Z,0.00
2018-01-01T07:21:53.599Z,0.00
2018-01-01T07:22:53.577Z,0.00
2018-01-01T07:23:53.514Z,0.00
2018-01-01T07:24:53.469Z,0.00
2018-01-01T07:25:53.436Z,0.00
2018-01-01T07:26:53.419Z,0.00
2018-01-01T07:27:53.399Z,0.00
2018-01-01T07:28:53.351Z,0.00
2018-01-01T07:29:53.275Z,5.63
2018-01-01T07:30:53.417Z,5.63
2018-01-01T07:31:53.202Z,5.63
2018-01-01T07:32:53.164Z,5.63
2018-01-01T07:33:53.123Z,5.63
2018-01-01T07:34:53.083Z,5.63
2018-01-01T07:35:53.047Z,5.63
2018-01-01T07:36:53.006Z,5.63
2018-01-01T07:37:52.968Z,11.25
2018-01-01T07:38:52.928Z,11.25
2018-01-01T07:39:52.886Z,11.25
2018-01-01T07:40:52.854Z,11.25
2018-01-01T07:41:52.812Z,11.25
2018-01-01T07:42:52.773Z,11.25
2018-01-01T07:43:52.736Z,11.25
2018-01-01T07:44:52.697Z,11.25
2018-01-01T07:45:52.653Z,16.88
2018-01-01T07:46:52.620Z,16.88
2018-01-01T07:47:52.583Z,16.88
2018-01-01T07:48:52.540Z,22.50
2018-01-01T07:49:52.503Z,22.50
2018-01-01T07:50:52.464Z,22.50
2018-01-01T07:51:52.424Z,22.50
2018-01-01T07:52:52.390Z,22.50
2018-01-01T07:53:52.348Z,28.13
2018-01-01T07:54:52.311Z,28.13
2018-01-01T07:55:52.271Z,28.13
2018-01-01T07:56:52.236Z,28.13
2018-01-01T07:57:52.205Z,28.13
2018-01-01T07:58:52.157Z,33.75
2018-01-01T07:59:52.120Z,33.75
2018-01-01T08:00:52.081Z,33.75
2018-01-01T08:01:52.044Z,33.75
2018-01-01T08:02:52.006Z,28.13
2018-01-01T08:03:51.966Z,28.13
2018-01-01T08:04:51.928Z,22.50
2018-01-01T08:05:51.891Z,16.88
2018-01-01T08:06:52.352Z,16.88
2018-01-01T08:07:51.816Z,16.88
2018-01-01T08:08:51.774Z,16.88
2018-01-01T08:09:51.738Z,11.25
2018-01-01T08:10:51.699Z,11.25
2018-01-01T08:11:51.661Z,11.25
2018-01-01T08:12:51.622Z,11.25
2018-01-01T08:13:51.585Z,11.25
2018-01-01T08:14:51.547Z,11.25
2018-01-01T08:15:51.510Z,11.25
2018-01-01T08:16:51.471Z,11.25
2018-01-01T08:17:51.430Z,11.25
2018-01-01T08:18:51.393Z,11.25
2018-01-01T08:19:51.356Z,11.25
2018-01-01T08:20:51.314Z,11.25
2018-01-01T08:21:51.929Z,11.25
2018-01-01T08:22:51.244Z,16.88
2018-01-01T08:23:51.200Z,16.88
2018-01-01T08:24:51.163Z,16.88
2018-01-01T08:25:51.125Z,16.88
2018-01-01T08:26:51.083Z,16.88
2018-01-01T08:27:51.048Z,11.25
2018-01-01T08:28:51.007Z,11.25
2018-01-01T08:29:50.968Z,11.25
2018-01-01T08:30:51.227Z,5.63
2018-01-01T08:31:50.893Z,5.63
2018-01-01T08:32:50.851Z,5.63
2018-01-01T08:33:51.232Z,5.63
2018-01-01T08:34:50.776Z,5.63
2018-01-01T08:35:50.738Z,5.63
2018-01-01T08:36:51.232Z,11.25
2018-01-01T08:37:50.659Z,11.25
2018-01-01T08:38:50.626Z,11.25
2018-01-01T08:39:50.579Z,11.25
2018-01-01T08:40:50.542Z,11.25
2018-01-01T08:41:50.504Z,11.25
2018-01-01T08:42:50.467Z,11.25
2018-01-01T08:43:50.426Z,5.63
2018-01-01T08:44:50.389Z,5.63
2018-01-01T08:45:50.349Z,5.63
2018-01-01T08:46:50.309Z,5.63
2018-01-01T08:47:50.272Z,5.63
2018-01-01T08:48:50.236Z,5.63
2018-01-01T08:49:50.194Z,5.63
2018-01-01T08:50:50.155Z,5.63
2018-01-01T08:51:50.115Z,5.63
2018-01-01T08:52:50.075Z,11.25
2018-01-01T08:53:50.040Z,16.88
2018-01-01T08:54:50.001Z,16.88
2018-01-01T08:55:49.962Z,16.88
2018-01-01T08:56:49.921Z,16.88
2018-01-01T08:57:49.883Z,22.50
2018-01-01T08:58:49.846Z,28.13
2018-01-01T08:59:49.808Z,33.75
2018-01-01T09:00:49.765Z,39.38
2018-01-01T09:01:49.726Z,45.00
2018-01-01T09:02:49.688Z,50.63
2018-01-01T09:03:49.649Z,56.25
2018-01-01T09:04:49.609Z,73.13
2018-01-01T09:05:49.572Z,73.13
2018-01-01T09:06:49.530Z,84.38
2018-01-01T09:07:49.492Z,78.75
2018-01-01T09:08:49.450Z,90.00
2018-01-01T09:09:49.416Z,101.25
2018-01-01T09:10:49.378Z,106.88
2018-01-01T09:11:49.336Z,101.25
2018-01-01T09:12:49.297Z,106.88
2018-01-01T09:13:49.259Z,129.38
2018-01-01T09:14:49.220Z,157.50
2018-01-01T09:15:49.181Z,140.63
2018-01-01T09:16:49.144Z,1732.50
2018-01-01T09:17:49.103Z,978.75
2018-01-01T09:18:49.065Z,1783.13
2018-01-01T09:19:49.026Z,1856.25
2018-01-01T09:20:48.987Z,1867.50
2018-01-01T09:21:48.952Z,1850.63
2018-01-01T09:22:48.916Z,1800.00
2018-01-01T09:23:48.880Z,1220.63
2018-01-01T09:24:48.843Z,1839.38
2018-01-01T09:25:48.811Z,1878.75
2018-01-01T09:26:48.778Z,1918.13
2018-01-01T09:27:48.745Z,1906.88
2018-01-01T09:28:48.711Z,1906.88
2018-01-01T09:29:48.678Z,1890.00
2018-01-01T09:30:48.647Z,1923.75
2018-01-01T09:31:48.615Z,1980.00
2018-01-01T09:32:48.585Z,1963.13
2018-01-01T09:33:48.555Z,1963.13
2018-01-01T09:34:48.525Z,1895.63
2018-01-01T09:35:48.494Z,2019.38
2018-01-01T09:36:48.466Z,2064.38
2018-01-01T09:37:48.442Z,1923.75
2018-01-01T09:38:48.413Z,1940.63
2018-01-01T09:39:48.380Z,2047.50
2018-01-01T09:40:48.352Z,1929.38
2018-01-01T09:41:48.324Z,2002.50
2018-01-01T09:42:48.297Z,2047.50
2018-01-01T09:43:48.268Z,1974.38
2018-01-01T09:44:48.288Z,2036.25
2018-01-01T09:45:48.215Z,2143.13
2018-01-01T09:46:48.189Z,2148.75
2018-01-01T09:47:48.162Z,2193.75
2018-01-01T09:48:48.135Z,2306.25
2018-01-01T09:49:48.110Z,2334.38
2018-01-01T09:50:48.087Z,2244.38
2018-01-01T09:51:48.058Z,2289.38
2018-01-01T09:52:48.034Z,2368.13
2018-01-01T09:53:48.011Z,2334.38
2018-01-01T09:54:47.985Z,2317.50
2018-01-01T09:55:47.961Z,2328.75
2018-01-01T09:56:47.936Z,2390.63
2018-01-01T09:57:47.912Z,2340.00
2018-01-01T09:58:47.889Z,2272.50
2018-01-01T09:59:47.866Z,2362.50
2018-01-01T10:00:47.843Z,2334.38
2018-01-01T10:01:47.819Z,2255.63
2018-01-01T10:02:47.796Z,2345.63
2018-01-01T10:03:47.774Z,2362.50
2018-01-01T10:04:47.753Z,2233.13
2018-01-01T10:05:47.732Z,2317.50
2018-01-01T10:06:47.709Z,2070.00
2018-01-01T10:07:47.687Z,1170.00
2018-01-01T10:08:47.664Z,770.63
2018-01-01T10:09:47.642Z,731.25
2018-01-01T10:10:47.620Z,714.38
2018-01-01T10:11:47.645Z,703.13
2018-01-01T10:12:47.578Z,691.88
2018-01-01T10:13:47.556Z,703.13
2018-01-01T10:14:47.536Z,686.25
2018-01-01T10:15:47.514Z,697.50
2018-01-01T10:16:47.495Z,703.13
2018-01-01T10:17:47.473Z,686.25
2018-01-01T10:18:47.452Z,680.63
2018-01-01T10:19:47.430Z,680.63
2018-01-01T10:20:47.501Z,663.75
2018-01-01T10:21:47.391Z,652.50
2018-01-01T10:22:47.370Z,663.75
2018-01-01T10:23:47.349Z,669.38
2018-01-01T10:24:47.328Z,675.00
2018-01-01T10:25:47.308Z,669.38
2018-01-01T10:26:47.288Z,680.63
2018-01-01T10:27:47.268Z,686.25
2018-01-01T10:28:47.243Z,675.00
2018-01-01T10:29:47.226Z,669.38
2018-01-01T10:30:47.206Z,646.88
2018-01-01T10:31:47.186Z,652.50
2018-01-01T10:32:47.170Z,630.00
2018-01-01T10:33:47.146Z,630.00
2018-01-01T10:34:47.126Z,646.88
2018-01-01T10:35:47.106Z,703.13
2018-01-01T10:36:47.084Z,703.13
2018-01-01T10:37:47.064Z,714.38
2018-01-01T10:38:47.045Z,691.88
2018-01-01T10:39:47.024Z,680.63
2018-01-01T10:40:47.005Z,691.88
2018-01-01T10:41:46.984Z,675.00
2018-01-01T10:42:46.962Z,658.13
2018-01-01T10:43:46.946Z,691.88
2018-01-01T10:44:46.925Z,725.63
2018-01-01T10:45:46.904Z,736.88
2018-01-01T10:46:46.883Z,759.38
2018-01-01T10:47:47.296Z,759.38
2018-01-01T10:48:46.845Z,742.50
2018-01-01T10:49:46.822Z,748.13
2018-01-01T10:50:46.803Z,798.75
2018-01-01T10:51:46.782Z,798.75
2018-01-01T10:52:46.761Z,866.25
2018-01-01T10:53:46.739Z,2514.38
2018-01-01T10:54:46.719Z,1260.00
2018-01-01T10:55:46.703Z,1271.25
2018-01-01T10:56:46.677Z,2503.13
2018-01-01T10:57:46.659Z,2621.25
2018-01-01T10:58:46.636Z,2671.88
2018-01-01T10:59:46.616Z,2621.25
2018-01-01T11:00:46.658Z,2632.50
2018-01-01T11:01:46.573Z,2548.13
2018-01-01T11:02:46.553Z,2525.63
2018-01-01T11:03:46.534Z,2643.75
2018-01-01T11:04:46.516Z,2621.25
2018-01-01T11:05:46.489Z,2604.38
2018-01-01T11:06:46.474Z,2593.13
2018-01-01T11:07:46.450Z,2621.25
2018-01-01T11:08:46.429Z,2655.00
2018-01-01T11:09:46.418Z,2683.13
2018-01-01T11:10:46.388Z,2531.25
2018-01-01T11:11:46.368Z,2542.50
2018-01-01T11:12:46.348Z,2508.75
2018-01-01T11:13:46.327Z,2435.63
2018-01-01T11:14:46.305Z,1929.38
2018-01-01T11:15:46.285Z,1451.25
2018-01-01T11:16:46.263Z,860.63
2018-01-01T11:17:46.242Z,815.63
2018-01-01T11:18:46.220Z,810.00
2018-01-01T11:19:46.200Z,798.75
2018-01-01T11:20:46.179Z,1805.63
2018-01-01T11:21:46.158Z,810.00
2018-01-01T11:22:46.254Z,855.00
2018-01-01T11:23:46.116Z,1715.63
2018-01-01T11:24:46.129Z,2030.63
2018-01-01T11:25:46.074Z,2356.88
2018-01-01T11:26:46.052Z,2306.25
2018-01-01T11:27:46.042Z,2401.88
2018-01-01T11:28:46.005Z,2401.88
2018-01-01T11:29:46.003Z,2452.50
2018-01-01T11:30:45.999Z,2548.13
2018-01-01T11:31:45.976Z,2480.63
2018-01-01T11:32:45.945Z,2458.13
2018-01-01T11:33:45.903Z,2452.50
2018-01-01T11:34:45.907Z,2368.13
2018-01-01T11:35:45.895Z,2565.00
2018-01-01T11:36:45.838Z,2677.50
2018-01-01T11:37:45.822Z,1108.13
2018-01-01T11:38:45.806Z,686.25
2018-01-01T11:39:45.787Z,2593.13
2018-01-01T11:40:45.771Z,2430.00
2018-01-01T11:41:45.731Z,2390.63
2018-01-01T11:42:45.705Z,2559.38
2018-01-01T11:43:45.704Z,2373.75
2018-01-01T11:44:45.745Z,2446.88
2018-01-01T11:45:45.637Z,2469.38
2018-01-01T11:46:45.617Z,2373.75
2018-01-01T11:47:45.594Z,2401.88
2018-01-01T11:48:45.572Z,2486.25
2018-01-01T11:49:45.549Z,2463.75
2018-01-01T11:50:45.528Z,2401.88
2018-01-01T11:51:45.523Z,2351.25
2018-01-01T11:52:45.530Z,2413.13
2018-01-01T11:53:45.463Z,2413.13
2018-01-01T11:54:45.451Z,2317.50
2018-01-01T11:55:45.446Z,2340.00
2018-01-01T11:56:45.395Z,2373.75
2018-01-01T11:57:45.400Z,2227.50
2018-01-01T11:58:45.386Z,2148.75
2018-01-01T11:59:45.329Z,1946.25
2018-01-01T12:00:45.306Z,1546.88
2018-01-01T12:01:45.284Z,1181.25
2018-01-01T12:02:45.277Z,798.75
2018-01-01T12:03:45.255Z,860.63
2018-01-01T12:04:45.224Z,894.38
2018-01-01T12:05:45.246Z,680.63
2018-01-01T12:06:45.229Z,596.25
2018-01-01T12:07:45.193Z,500.63
2018-01-01T12:08:45.171Z,315.00
2018-01-01T12:09:45.116Z,281.25
2018-01-01T12:10:45.069Z,225.00
2018-01-01T12:11:45.117Z,196.88
2018-01-01T12:12:45.033Z,185.63
2018-01-01T12:13:45.008Z,174.38
2018-01-01T12:14:44.964Z,174.38
2018-01-01T12:15:44.954Z,168.75
2018-01-01T12:16:44.910Z,163.13
2018-01-01T12:17:44.879Z,151.88
2018-01-01T12:18:44.857Z,151.88
2018-01-01T12:19:44.833Z,146.25
2018-01-01T12:20:44.793Z,146.25
2018-01-01T12:21:44.801Z,140.63
2018-01-01T12:22:45.161Z,129.38
2018-01-01T12:23:44.681Z,112.50
2018-01-01T12:24:44.673Z,95.63
2018-01-01T12:25:44.644Z,90.00
2018-01-01T12:26:44.590Z,84.38
2018-01-01T12:27:45.173Z,84.38
2018-01-01T12:28:44.523Z,78.75
2018-01-01T12:29:44.527Z,78.75
2018-01-01T12:30:44.521Z,78.75
2018-01-01T12:31:44.449Z,78.75
2018-01-01T12:32:44.396Z,78.75
2018-01-01T12:33:44.380Z,78.75
2018-01-01T12:34:44.327Z,73.13
2018-01-01T12:35:44.288Z,73.13
2018-01-01T12:36:44.258Z,67.50
2018-01-01T12:37:44.243Z,67.50
2018-01-01T12:38:44.184Z,67.50
2018-01-01T12:39:44.218Z,67.50
2018-01-01T12:40:44.139Z,67.50
2018-01-01T12:41:44.110Z,67.50
2018-01-01T12:42:44.047Z,67.50
2018-01-01T12:43:44.028Z,67.50
2018-01-01T12:44:43.978Z,61.88
2018-01-01T12:45:43.952Z,61.88
2018-01-01T12:46:43.942Z,56.25
2018-01-01T12:47:43.917Z,56.25
2018-01-01T12:48:43.838Z,50.63
2018-01-01T12:49:43.819Z,50.63
2018-01-01T12:50:43.786Z,45.00
2018-01-01T12:51:43.734Z,45.00
2018-01-01T12:52:43.768Z,45.00
2018-01-01T12:53:43.663Z,50.63
2018-01-01T12:54:43.842Z,56.25
2018-01-01T12:55:43.604Z,56.25
2018-01-01T12:56:43.578Z,61.88
2018-01-01T12:57:43.533Z,61.88